sensor_id;sensor_type;location;lat;lon;timestamp;pressure;altitude;pressure_sealevel;temperature;humidity
77325;BME280;66387;53.440;10.390;2023-05-02T00:00:11;100843.28;;;11.84;62.77
77325;BME280;66387;53.440;10.390;2023-05-02T00:02:37;100853.13;;;11.59;64.19
77325;BME280;66387;53.440;10.390;2023-05-02T00:05:03;100850.56;;;11.58;63.92
77325;BME280;66387;53.440;10.390;2023-05-02T00:07:29;100847.00;;;11.65;63.95
77325;BME280;66387;53.440;10.390;2023-05-02T00:09:54;100848.69;;;11.69;64.59
77325;BME280;66387;53.440;10.390;2023-05-02T00:12:19;100848.88;;;11.54;65.09
77325;BME280;66387;53.440;10.390;2023-05-02T00:14:45;100848.06;;;11.49;66.51
77325;BME280;66387;53.440;10.390;2023-05-02T00:17:19;100847.06;;;11.59;66.21
77325;BME280;66387;53.440;10.390;2023-05-02T00:19:45;100849.66;;;11.62;66.88
77325;BME280;66387;53.440;10.390;2023-05-02T00:22:11;100845.56;;;11.43;69.10
77325;BME280;66387;53.440;10.390;2023-05-02T00:24:36;100851.53;;;11.48;68.33
77325;BME280;66387;53.440;10.390;2023-05-02T00:27:01;100850.81;;;11.37;70.11
77325;BME280;66387;53.440;10.390;2023-05-02T00:29:26;100851.81;;;11.28;70.54
77325;BME280;66387;53.440;10.390;2023-05-02T00:31:52;100850.13;;;11.22;70.61
77325;BME280;66387;53.440;10.390;2023-05-02T00:34:17;100850.13;;;11.22;71.28
77325;BME280;66387;53.440;10.390;2023-05-02T00:36:42;100846.72;;;11.19;72.17
77325;BME280;66387;53.440;10.390;2023-05-02T00:39:08;100851.13;;;11.12;72.06
77325;BME280;66387;53.440;10.390;2023-05-02T00:41:34;100854.75;;;10.99;73.92
77325;BME280;66387;53.440;10.390;2023-05-02T00:43:59;100854.75;;;10.99;74.60
77325;BME280;66387;53.440;10.390;2023-05-02T00:46:24;100861.72;;;10.94;74.45
77325;BME280;66387;53.440;10.390;2023-05-02T00:48:50;100866.91;;;10.94;75.17
77325;BME280;66387;53.440;10.390;2023-05-02T00:51:15;100866.03;;;10.95;75.47
77325;BME280;66387;53.440;10.390;2023-05-02T00:53:40;100860.22;;;10.72;76.53
77325;BME280;66387;53.440;10.390;2023-05-02T00:56:07;100869.63;;;10.83;76.39
77325;BME280;66387;53.440;10.390;2023-05-02T00:58:33;100863.78;;;10.62;78.07
77325;BME280;66387;53.440;10.390;2023-05-02T01:12:36;100853.13;;;10.89;78.88
77325;BME280;66387;53.440;10.390;2023-05-02T01:15:05;100854.09;;;10.80;79.07
77325;BME280;66387;53.440;10.390;2023-05-02T01:17:32;100848.09;;;10.74;79.48
77325;BME280;66387;53.440;10.390;2023-05-02T01:20:01;100851.41;;;10.88;78.58
77325;BME280;66387;53.440;10.390;2023-05-02T01:22:28;100853.25;;;10.77;79.93
77325;BME280;66387;53.440;10.390;2023-05-02T01:30:14;100857.50;;;10.82;80.08
77325;BME280;66387;53.440;10.390;2023-05-02T01:32:42;100855.81;;;10.81;80.08
77325;BME280;66387;53.440;10.390;2023-05-02T01:35:10;100865.19;;;10.93;79.68
77325;BME280;66387;53.440;10.390;2023-05-02T01:37:38;100860.00;;;10.93;79.53
77325;BME280;66387;53.440;10.390;2023-05-02T01:40:07;100863.44;;;10.95;79.21
77325;BME280;66387;53.440;10.390;2023-05-02T01:42:35;100864.28;;;10.97;79.60
77325;BME280;66387;53.440;10.390;2023-05-02T01:45:02;100868.69;;;10.92;80.28
77325;BME280;66387;53.440;10.390;2023-05-02T01:47:29;100868.66;;;10.95;80.32
77325;BME280;66387;53.440;10.390;2023-05-02T01:49:58;100864.50;;;10.76;81.47
77325;BME280;66387;53.440;10.390;2023-05-02T01:52:25;100862.66;;;10.89;80.65
77325;BME280;66387;53.440;10.390;2023-05-02T01:54:52;100867.94;;;10.79;81.37
77325;BME280;66387;53.440;10.390;2023-05-02T01:57:19;100859.13;;;10.94;80.60
77325;BME280;66387;53.440;10.390;2023-05-02T01:59:46;100872.06;;;10.97;80.69
77325;BME280;66387;53.440;10.390;2023-05-02T02:02:14;100866.88;;;10.99;81.01
77325;BME280;66387;53.440;10.390;2023-05-02T02:04:41;100869.44;;;11.02;81.05
77325;BME280;66387;53.440;10.390;2023-05-02T02:07:08;100867.78;;;10.96;81.31
77325;BME280;66387;53.440;10.390;2023-05-02T02:09:35;100874.63;;;11.03;81.37
77325;BME280;66387;53.440;10.390;2023-05-02T02:12:22;100879.81;;;11.03;81.56
77325;BME280;66387;53.440;10.390;2023-05-02T02:15:28;100875.53;;;10.99;81.61
77325;BME280;66387;53.440;10.390;2023-05-02T02:20:20;100873.13;;;10.79;83.50
77325;BME280;66387;53.440;10.390;2023-05-02T02:22:46;100878.25;;;10.89;82.66
77325;BME280;66387;53.440;10.390;2023-05-02T02:25:15;100880.75;;;10.95;83.44
77325;BME280;66387;53.440;10.390;2023-05-02T02:27:41;100890.09;;;11.12;81.92
77325;BME280;66387;53.440;10.390;2023-05-02T02:30:07;100878.00;;;11.08;82.19
77325;BME280;66387;53.440;10.390;2023-05-02T02:32:33;100891.16;;;10.96;82.50
77325;BME280;66387;53.440;10.390;2023-05-02T02:34:59;100882.63;;;10.82;84.20
77325;BME280;66387;53.440;10.390;2023-05-02T02:37:29;100886.97;;;10.81;84.34
77325;BME280;66387;53.440;10.390;2023-05-02T02:40:11;100889.69;;;10.69;84.55
77325;BME280;66387;53.440;10.390;2023-05-02T02:43:07;100898.38;;;10.64;85.54
77325;BME280;66387;53.440;10.390;2023-05-02T02:51:44;100908.84;;;10.53;87.04
77325;BME280;66387;53.440;10.390;2023-05-02T02:54:17;100913.13;;;10.59;86.92
77325;BME280;66387;53.440;10.390;2023-05-02T02:56:45;100920.16;;;10.48;87.46
77325;BME280;66387;53.440;10.390;2023-05-02T02:59:15;100928.00;;;10.42;88.26
77325;BME280;66387;53.440;10.390;2023-05-02T03:02:07;100920.22;;;10.42;88.11
77325;BME280;66387;53.440;10.390;2023-05-02T03:04:37;100923.59;;;10.51;87.75
77325;BME280;66387;53.440;10.390;2023-05-02T03:07:02;100927.97;;;10.45;87.81
77325;BME280;66387;53.440;10.390;2023-05-02T03:09:42;100936.56;;;10.53;88.10
77325;BME280;66387;53.440;10.390;2023-05-02T03:12:08;100933.97;;;10.51;88.15
77325;BME280;66387;53.440;10.390;2023-05-02T03:14:33;100939.16;;;10.50;88.71
77325;BME280;66387;53.440;10.390;2023-05-02T03:16:59;100941.81;;;10.44;89.34
77325;BME280;66387;53.440;10.390;2023-05-02T03:19:24;100943.56;;;10.42;89.30
77325;BME280;66387;53.440;10.390;2023-05-02T03:21:50;100946.19;;;10.36;89.93
77325;BME280;66387;53.440;10.390;2023-05-02T03:24:15;100955.75;;;10.27;90.27
77325;BME280;66387;53.440;10.390;2023-05-02T03:26:41;100961.00;;;10.18;89.45
77325;BME280;66387;53.440;10.390;2023-05-02T03:29:06;100960.94;;;10.27;88.47
77325;BME280;66387;53.440;10.390;2023-05-02T03:31:32;100959.25;;;10.20;89.47
77325;BME280;66387;53.440;10.390;2023-05-02T03:33:57;100971.41;;;10.12;89.22
77325;BME280;66387;53.440;10.390;2023-05-02T03:36:22;100974.94;;;9.92;90.52
77325;BME280;66387;53.440;10.390;2023-05-02T03:38:48;100985.44;;;9.60;90.32
77325;BME280;66387;53.440;10.390;2023-05-02T03:41:13;100988.97;;;9.30;89.54
77325;BME280;66387;53.440;10.390;2023-05-02T03:43:38;101003.69;;;9.05;89.77
77325;BME280;66387;53.440;10.390;2023-05-02T03:46:05;101020.06;;;8.89;91.26
77325;BME280;66387;53.440;10.390;2023-05-02T03:48:32;101012.31;;;8.86;91.92
77325;BME280;66387;53.440;10.390;2023-05-02T03:50:57;101018.38;;;8.91;91.34
77325;BME280;66387;53.440;10.390;2023-05-02T03:53:22;101027.00;;;8.90;91.06
77325;BME280;66387;53.440;10.390;2023-05-02T03:55:48;101023.53;;;8.86;89.88
77325;BME280;66387;53.440;10.390;2023-05-02T03:58:13;101027.84;;;8.83;90.53
77325;BME280;66387;53.440;10.390;2023-05-02T04:00:39;101042.53;;;8.89;89.20
77325;BME280;66387;53.440;10.390;2023-05-02T04:03:04;101052.84;;;8.54;88.73
77325;BME280;66387;53.440;10.390;2023-05-02T04:05:30;101054.44;;;8.15;88.48
77325;BME280;66387;53.440;10.390;2023-05-02T04:07:58;101069.88;;;8.06;89.04
77325;BME280;66387;53.440;10.390;2023-05-02T04:10:23;101075.00;;;7.96;86.46
77325;BME280;66387;53.440;10.390;2023-05-02T04:12:48;101078.38;;;7.84;85.93
77325;BME280;66387;53.440;10.390;2023-05-02T04:15:14;101092.13;;;7.77;84.75
77325;BME280;66387;53.440;10.390;2023-05-02T04:17:39;101095.53;;;7.67;84.48
77325;BME280;66387;53.440;10.390;2023-05-02T04:20:05;101101.66;;;7.79;83.17
77325;BME280;66387;53.440;10.390;2023-05-02T04:22:31;101100.69;;;7.67;82.38
77325;BME280;66387;53.440;10.390;2023-05-02T04:24:57;101107.56;;;7.63;82.12
77325;BME280;66387;53.440;10.390;2023-05-02T04:27:22;101112.75;;;7.65;81.93
77325;BME280;66387;53.440;10.390;2023-05-02T04:29:48;101122.97;;;7.50;79.85
77325;BME280;66387;53.440;10.390;2023-05-02T04:32:14;101121.22;;;7.46;80.09
77325;BME280;66387;53.440;10.390;2023-05-02T04:34:40;101130.56;;;7.33;80.40
77325;BME280;66387;53.440;10.390;2023-05-02T04:37:05;101121.22;;;7.46;80.36
77325;BME280;66387;53.440;10.390;2023-05-02T04:39:31;101130.63;;;7.40;79.31
77325;BME280;66387;53.440;10.390;2023-05-02T04:41:56;101141.78;;;7.33;80.05
77325;BME280;66387;53.440;10.390;2023-05-02T04:44:22;101140.03;;;7.32;79.83
77325;BME280;66387;53.440;10.390;2023-05-02T04:46:47;101141.81;;;7.39;79.65
77325;BME280;66387;53.440;10.390;2023-05-02T04:49:12;101150.38;;;7.32;78.85
77325;BME280;66387;53.440;10.390;2023-05-02T04:51:37;101167.63;;;7.35;79.41
77325;BME280;66387;53.440;10.390;2023-05-02T04:54:03;101166.78;;;7.37;78.26
77325;BME280;66387;53.440;10.390;2023-05-02T04:56:28;101180.56;;;7.39;78.09
77325;BME280;66387;53.440;10.390;2023-05-02T04:58:53;101183.13;;;7.39;77.45
77325;BME280;66387;53.440;10.390;2023-05-02T05:01:19;101188.31;;;7.39;78.07
77325;BME280;66387;53.440;10.390;2023-05-02T05:03:44;101192.66;;;7.42;77.71
77325;BME280;66387;53.440;10.390;2023-05-02T05:06:09;101181.47;;;7.43;77.17
77325;BME280;66387;53.440;10.390;2023-05-02T05:08:34;101200.41;;;7.42;77.08
77325;BME280;66387;53.440;10.390;2023-05-02T05:11:00;101209.88;;;7.42;76.08
77325;BME280;66387;53.440;10.390;2023-05-02T05:13:25;101196.97;;;7.45;75.73
77325;BME280;66387;53.440;10.390;2023-05-02T05:15:52;101207.41;;;7.54;75.55
77325;BME280;66387;53.440;10.390;2023-05-02T05:18:17;101198.69;;;7.43;74.96
77325;BME280;66387;53.440;10.390;2023-05-02T05:20:43;101211.63;;;7.46;75.18
77325;BME280;66387;53.440;10.390;2023-05-02T05:23:08;101216.00;;;7.54;75.23
77325;BME280;66387;53.440;10.390;2023-05-02T05:25:33;101219.50;;;7.62;74.55
77325;BME280;66387;53.440;10.390;2023-05-02T05:27:59;101224.75;;;7.73;74.35
77325;BME280;66387;53.440;10.390;2023-05-02T05:30:24;101218.72;;;7.71;74.56
77325;BME280;66387;53.440;10.390;2023-05-02T05:32:50;101223.00;;;7.69;73.71
77325;BME280;66387;53.440;10.390;2023-05-02T05:35:15;101223.91;;;7.72;73.61
77325;BME280;66387;53.440;10.390;2023-05-02T05:37:40;101228.22;;;7.72;72.39
77325;BME280;66387;53.440;10.390;2023-05-02T05:40:07;101230.91;;;7.85;73.17
77325;BME280;66387;53.440;10.390;2023-05-02T05:42:32;101243.78;;;7.81;73.11
77325;BME280;66387;53.440;10.390;2023-05-02T05:44:58;101240.38;;;7.82;71.77
77325;BME280;66387;53.440;10.390;2023-05-02T05:47:23;101241.94;;;7.65;70.53
77325;BME280;66387;53.440;10.390;2023-05-02T05:49:52;101246.16;;;7.54;70.23
77325;BME280;66387;53.440;10.390;2023-05-02T05:52:18;101246.88;;;7.44;67.86
77325;BME280;66387;53.440;10.390;2023-05-02T05:54:43;101265.91;;;7.49;68.10
77325;BME280;66387;53.440;10.390;2023-05-02T05:57:08;101267.63;;;7.50;67.89
77325;BME280;66387;53.440;10.390;2023-05-02T05:59:34;101262.53;;;7.56;67.56
77325;BME280;66387;53.440;10.390;2023-05-02T06:02:00;101264.25;;;7.57;67.89
77325;BME280;66387;53.440;10.390;2023-05-02T06:04:25;101274.50;;;7.51;67.03
77325;BME280;66387;53.440;10.390;2023-05-02T06:06:50;101283.03;;;7.40;66.88
77325;BME280;66387;53.440;10.390;2023-05-02T06:09:17;101290.78;;;7.39;67.01
77325;BME280;66387;53.440;10.390;2023-05-02T06:11:43;101286.53;;;7.46;66.96
77325;BME280;66387;53.440;10.390;2023-05-02T06:14:08;101307.03;;;7.30;67.84
77325;BME280;66387;53.440;10.390;2023-05-02T06:16:34;101317.41;;;7.32;66.70
77325;BME280;66387;53.440;10.390;2023-05-02T06:18:59;101318.91;;;7.16;66.91
77325;BME280;66387;53.440;10.390;2023-05-02T06:21:24;101318.97;;;7.22;67.56
77325;BME280;66387;53.440;10.390;2023-05-02T06:23:50;101317.31;;;7.24;67.32
77325;BME280;66387;53.440;10.390;2023-05-02T06:26:16;101322.41;;;7.21;66.73
77325;BME280;66387;53.440;10.390;2023-05-02T06:28:41;101331.94;;;7.25;66.61
77325;BME280;66387;53.440;10.390;2023-05-02T06:31:06;101325.94;;;7.29;66.79
77325;BME280;66387;53.440;10.390;2023-05-02T06:33:32;101332.81;;;7.27;66.96
77325;BME280;66387;53.440;10.390;2023-05-02T06:35:59;101339.66;;;7.25;66.90
77325;BME280;66387;53.440;10.390;2023-05-02T06:38:24;101326.59;;;7.10;66.41
77325;BME280;66387;53.440;10.390;2023-05-02T06:40:50;101342.03;;;7.07;66.88
77325;BME280;66387;53.440;10.390;2023-05-02T06:43:16;101349.09;;;7.22;67.10
77325;BME280;66387;53.440;10.390;2023-05-02T06:45:42;101349.91;;;7.16;67.35
77325;BME280;66387;53.440;10.390;2023-05-02T06:48:07;101369.88;;;7.31;67.08
77325;BME280;66387;53.440;10.390;2023-05-02T06:50:33;101357.88;;;7.34;67.30
77325;BME280;66387;53.440;10.390;2023-05-02T06:52:58;101370.03;;;7.43;66.82
77325;BME280;66387;53.440;10.390;2023-05-02T06:55:24;101372.66;;;7.48;66.44
77325;BME280;66387;53.440;10.390;2023-05-02T06:57:50;101380.25;;;7.34;66.47
77325;BME280;66387;53.440;10.390;2023-05-02T07:00:17;101379.38;;;7.33;66.49
77325;BME280;66387;53.440;10.390;2023-05-02T07:02:46;101382.00;;;7.36;66.26
77325;BME280;66387;53.440;10.390;2023-05-02T07:05:12;101376.81;;;7.35;65.74
77325;BME280;66387;53.440;10.390;2023-05-02T07:07:39;101390.72;;;7.45;65.66
77325;BME280;66387;53.440;10.390;2023-05-02T07:10:05;101394.91;;;7.36;66.27
77325;BME280;66387;53.440;10.390;2023-05-02T07:12:30;101395.03;;;7.46;65.10
77325;BME280;66387;53.440;10.390;2023-05-02T07:14:55;101400.31;;;7.58;65.11
77325;BME280;66387;53.440;10.390;2023-05-02T07:17:21;101394.94;;;7.38;64.42
77325;BME280;66387;53.440;10.390;2023-05-02T07:19:47;101407.09;;;7.47;63.87
77325;BME280;66387;53.440;10.390;2023-05-02T07:22:12;101412.44;;;7.62;64.30
77325;BME280;66387;53.440;10.390;2023-05-02T07:24:39;101401.13;;;7.52;63.58
77325;BME280;66387;53.440;10.390;2023-05-02T07:27:05;101421.09;;;7.64;63.64
77325;BME280;66387;53.440;10.390;2023-05-02T07:29:30;101416.78;;;7.66;64.04
77325;BME280;66387;53.440;10.390;2023-05-02T07:31:56;101421.94;;;7.63;63.60
77325;BME280;66387;53.440;10.390;2023-05-02T07:34:21;101415.78;;;7.55;63.33
77325;BME280;66387;53.440;10.390;2023-05-02T07:36:46;101430.56;;;7.63;63.22
77325;BME280;66387;53.440;10.390;2023-05-02T07:39:12;101425.47;;;7.71;62.83
77325;BME280;66387;53.440;10.390;2023-05-02T07:41:37;101421.06;;;7.62;62.51
77325;BME280;66387;53.440;10.390;2023-05-02T07:44:02;101433.28;;;7.75;62.35
77325;BME280;66387;53.440;10.390;2023-05-02T07:46:27;101438.41;;;7.71;61.66
77325;BME280;66387;53.440;10.390;2023-05-02T07:48:53;101437.66;;;7.82;62.03
77325;BME280;66387;53.440;10.390;2023-05-02T07:51:18;101443.00;;;7.98;61.24
77325;BME280;66387;53.440;10.390;2023-05-02T07:53:45;101445.63;;;8.02;59.77
77325;BME280;66387;53.440;10.390;2023-05-02T07:56:11;101449.91;;;7.97;60.66
77325;BME280;66387;53.440;10.390;2023-05-02T07:58:36;101444.69;;;7.94;60.38
77325;BME280;66387;53.440;10.390;2023-05-02T08:01:02;101449.03;;;7.98;59.12
77325;BME280;66387;53.440;10.390;2023-05-02T08:03:28;101466.31;;;8.02;59.08
77325;BME280;66387;53.440;10.390;2023-05-02T08:05:54;101464.72;;;8.13;59.40
77325;BME280;66387;53.440;10.390;2023-05-02T08:08:19;101461.13;;;8.02;57.69
77325;BME280;66387;53.440;10.390;2023-05-02T08:10:44;101468.22;;;8.18;58.38
77325;BME280;66387;53.440;10.390;2023-05-02T08:13:10;101469.91;;;8.15;58.77
77325;BME280;66387;53.440;10.390;2023-05-02T08:15:35;101476.25;;;8.41;57.18
77325;BME280;66387;53.440;10.390;2023-05-02T08:18:01;101475.44;;;8.45;55.87
77325;BME280;66387;53.440;10.390;2023-05-02T08:20:26;101485.00;;;8.57;57.18
77325;BME280;66387;53.440;10.390;2023-05-02T08:22:51;101483.03;;;8.31;55.87
77325;BME280;66387;53.440;10.390;2023-05-02T08:25:16;101473.56;;;8.35;55.78
77325;BME280;66387;53.440;10.390;2023-05-02T08:27:42;101479.69;;;8.40;56.59
77325;BME280;66387;53.440;10.390;2023-05-02T08:30:07;101487.50;;;8.49;55.25
77325;BME280;66387;53.440;10.390;2023-05-02T08:32:32;101490.25;;;8.64;55.66
77325;BME280;66387;53.440;10.390;2023-05-02T08:34:58;101498.00;;;8.63;56.34
77325;BME280;66387;53.440;10.390;2023-05-02T08:37:23;101492.88;;;8.69;55.84
77325;BME280;66387;53.440;10.390;2023-05-02T08:39:48;101499.03;;;8.81;54.56
77325;BME280;66387;53.440;10.390;2023-05-02T08:42:14;101496.41;;;8.77;53.95
77325;BME280;66387;53.440;10.390;2023-05-02T08:44:39;101506.69;;;8.71;54.65
77325;BME280;66387;53.440;10.390;2023-05-02T08:47:05;101502.44;;;8.76;54.09
77325;BME280;66387;53.440;10.390;2023-05-02T08:49:31;101505.78;;;8.67;53.76
77325;BME280;66387;53.440;10.390;2023-05-02T08:51:59;101509.25;;;8.68;53.68
77325;BME280;66387;53.440;10.390;2023-05-02T08:54:24;101524.94;;;8.86;54.10
77325;BME280;66387;53.440;10.390;2023-05-02T08:56:52;101516.69;;;9.35;52.80
77325;BME280;66387;53.440;10.390;2023-05-02T08:59:18;101524.22;;;9.02;52.91
77325;BME280;66387;53.440;10.390;2023-05-02T09:01:44;101524.16;;;8.96;53.64
77325;BME280;66387;53.440;10.390;2023-05-02T09:04:13;101529.69;;;9.42;52.96
77325;BME280;66387;53.440;10.390;2023-05-02T09:06:39;101527.00;;;9.29;51.66
77325;BME280;66387;53.440;10.390;2023-05-02T09:09:04;101550.31;;;9.29;53.67
77325;BME280;66387;53.440;10.390;2023-05-02T09:11:29;101541.72;;;9.36;53.06
77325;BME280;66387;53.440;10.390;2023-05-02T09:13:55;101547.72;;;9.29;51.25
77325;BME280;66387;53.440;10.390;2023-05-02T09:16:24;101549.63;;;9.53;52.89
77325;BME280;66387;53.440;10.390;2023-05-02T09:18:51;101546.28;;;9.75;51.79
77325;BME280;66387;53.440;10.390;2023-05-02T09:21:19;101555.88;;;9.90;51.19
77325;BME280;66387;53.440;10.390;2023-05-02T09:23:47;101554.13;;;9.89;51.82
77325;BME280;66387;53.440;10.390;2023-05-02T09:28:43;101560.97;;;9.75;51.40
77325;BME280;66387;53.440;10.390;2023-05-02T09:31:09;101559.38;;;10.04;50.67
77325;BME280;66387;53.440;10.390;2023-05-02T09:33:36;101568.00;;;9.97;50.09
77325;BME280;66387;53.440;10.390;2023-05-02T09:36:01;101568.00;;;10.00;49.98
77325;BME280;66387;53.440;10.390;2023-05-02T09:38:27;101561.19;;;10.17;50.14
77325;BME280;66387;53.440;10.390;2023-05-02T09:40:53;101547.34;;;10.15;49.80
77325;BME280;66387;53.440;10.390;2023-05-02T09:43:21;101555.13;;;10.17;49.53
77325;BME280;66387;53.440;10.390;2023-05-02T09:46:03;101566.41;;;10.16;50.24
77325;BME280;66387;53.440;10.390;2023-05-02T09:48:30;101572.38;;;10.09;51.26
77325;BME280;66387;53.440;10.390;2023-05-02T09:50:56;101569.88;;;10.31;49.87
77325;BME280;66387;53.440;10.390;2023-05-02T09:53:24;101578.63;;;10.59;49.78
77325;BME280;66387;53.440;10.390;2023-05-02T09:55:59;101581.97;;;10.16;49.66
77325;BME280;66387;53.440;10.390;2023-05-02T09:58:25;101585.34;;;10.09;50.18
77325;BME280;66387;53.440;10.390;2023-05-02T10:00:50;101591.56;;;10.41;50.44
77325;BME280;66387;53.440;10.390;2023-05-02T10:03:16;101595.84;;;10.31;50.84
77325;BME280;66387;53.440;10.390;2023-05-02T10:05:44;101598.50;;;10.51;49.87
77325;BME280;66387;53.440;10.390;2023-05-02T10:08:12;101599.47;;;10.85;49.37
77325;BME280;66387;53.440;10.390;2023-05-02T10:10:39;101605.50;;;10.79;49.90
77325;BME280;66387;53.440;10.390;2023-05-02T10:13:07;101589.00;;;10.61;48.60
77325;BME280;66387;53.440;10.390;2023-05-02T10:15:34;101593.41;;;11.06;47.05
77325;BME280;66387;53.440;10.390;2023-05-02T10:18:08;101589.06;;;11.30;46.08
77325;BME280;66387;53.440;10.390;2023-05-02T10:20:52;101585.59;;;11.57;46.34
77325;BME280;66387;53.440;10.390;2023-05-02T10:23:20;101581.81;;;12.48;47.07
77325;BME280;66387;53.440;10.390;2023-05-02T10:25:46;101597.75;;;11.20;47.12
77325;BME280;66387;53.440;10.390;2023-05-02T10:28:13;101589.94;;;11.31;47.00
77325;BME280;66387;53.440;10.390;2023-05-02T10:30:39;101592.56;;;11.25;47.96
77325;BME280;66387;53.440;10.390;2023-05-02T10:33:04;101593.41;;;11.24;48.09
77325;BME280;66387;53.440;10.390;2023-05-02T10:35:30;101596.84;;;11.52;47.02
77325;BME280;66387;53.440;10.390;2023-05-02T10:37:56;101602.03;;;11.68;46.61
77325;BME280;66387;53.440;10.390;2023-05-02T10:40:22;101600.31;;;11.45;46.14
77325;BME280;66387;53.440;10.390;2023-05-02T10:42:48;101609.84;;;11.18;47.73
77325;BME280;66387;53.440;10.390;2023-05-02T10:45:32;101614.19;;;10.98;47.57
77325;BME280;66387;53.440;10.390;2023-05-02T10:50:55;101609.00;;;11.35;47.97
77325;BME280;66387;53.440;10.390;2023-05-02T10:53:22;101607.28;;;11.40;47.38
77325;BME280;66387;53.440;10.390;2023-05-02T10:58:38;101613.34;;;11.07;46.60
77325;BME280;66387;53.440;10.390;2023-05-02T11:03:59;101620.25;;;10.99;49.33
77325;BME280;66387;53.440;10.390;2023-05-02T11:06:25;101597.69;;;10.69;49.16
77325;BME280;66387;53.440;10.390;2023-05-02T11:08:51;101622.81;;;10.73;49.80
77325;BME280;66387;53.440;10.390;2023-05-02T11:11:45;101633.25;;;11.03;50.62
77325;BME280;66387;53.440;10.390;2023-05-02T11:24:52;101639.22;;;10.63;50.42
77325;BME280;66387;53.440;10.390;2023-05-02T11:30:03;101639.97;;;10.36;49.85
77325;BME280;66387;53.440;10.390;2023-05-02T11:35:16;101608.09;;;10.90;46.78
77325;BME280;66387;53.440;10.390;2023-05-02T11:37:41;101630.56;;;12.15;46.33
77325;BME280;66387;53.440;10.390;2023-05-02T11:40:11;101634.03;;;12.10;46.73
77325;BME280;66387;53.440;10.390;2023-05-02T11:42:36;101634.97;;;11.56;46.76
77325;BME280;66387;53.440;10.390;2023-05-02T11:45:02;101641.94;;;11.40;46.84
77325;BME280;66387;53.440;10.390;2023-05-02T11:47:28;101650.59;;;11.45;47.94
77325;BME280;66387;53.440;10.390;2023-05-02T11:49:54;101641.94;;;11.32;47.49
77325;BME280;66387;53.440;10.390;2023-05-02T11:52:20;101641.88;;;12.05;46.17
77325;BME280;66387;53.440;10.390;2023-05-02T11:54:45;101647.66;;;12.68;45.93
77325;BME280;66387;53.440;10.390;2023-05-02T11:57:11;101650.47;;;12.27;46.77
77325;BME280;66387;53.440;10.390;2023-05-02T11:59:53;101649.75;;;11.72;48.20
77325;BME280;66387;53.440;10.390;2023-05-02T12:02:19;101652.31;;;11.52;48.40
77325;BME280;66387;53.440;10.390;2023-05-02T12:05:01;101659.25;;;11.52;48.40
77325;BME280;66387;53.440;10.390;2023-05-02T12:07:43;101667.03;;;11.33;48.95
77325;BME280;66387;53.440;10.390;2023-05-02T12:10:09;101668.78;;;11.22;50.39
77325;BME280;66387;53.440;10.390;2023-05-02T12:12:36;101674.84;;;11.23;49.29
77325;BME280;66387;53.440;10.390;2023-05-02T12:17:30;101676.59;;;11.25;49.35
77325;BME280;66387;53.440;10.390;2023-05-02T12:19:55;101685.28;;;11.40;50.09
77325;BME280;66387;53.440;10.390;2023-05-02T12:22:22;101684.38;;;11.28;48.63
77325;BME280;66387;53.440;10.390;2023-05-02T12:24:49;101680.91;;;11.20;47.70
77325;BME280;66387;53.440;10.390;2023-05-02T12:27:15;101678.34;;;11.32;47.70
77325;BME280;66387;53.440;10.390;2023-05-02T12:29:42;101680.06;;;11.35;47.91
77325;BME280;66387;53.440;10.390;2023-05-02T12:32:09;101687.00;;;11.54;47.40
77325;BME280;66387;53.440;10.390;2023-05-02T12:34:35;101689.59;;;11.57;47.70
77325;BME280;66387;53.440;10.390;2023-05-02T12:37:02;101693.06;;;11.52;48.55
77325;BME280;66387;53.440;10.390;2023-05-02T12:39:41;101686.97;;;11.38;49.84
77325;BME280;66387;53.440;10.390;2023-05-02T12:42:15;101700.84;;;11.24;49.15
77325;BME280;66387;53.440;10.390;2023-05-02T12:44:42;101704.31;;;11.20;49.52
77325;BME280;66387;53.440;10.390;2023-05-02T12:47:09;101709.50;;;11.22;48.81
77325;BME280;66387;53.440;10.390;2023-05-02T12:49:54;101710.34;;;11.13;49.78
77325;BME280;66387;53.440;10.390;2023-05-02T12:52:45;101710.31;;;10.89;49.62
77325;BME280;66387;53.440;10.390;2023-05-02T12:57:40;101719.78;;;10.79;48.87
77325;BME280;66387;53.440;10.390;2023-05-02T13:00:06;101708.56;;;10.88;48.76
77325;BME280;66387;53.440;10.390;2023-05-02T13:02:32;101716.31;;;10.83;48.62
77325;BME280;66387;53.440;10.390;2023-05-02T13:04:57;101717.22;;;10.93;48.45
77325;BME280;66387;53.440;10.390;2023-05-02T13:07:22;101716.34;;;10.94;49.93
77325;BME280;66387;53.440;10.390;2023-05-02T13:09:48;101707.63;;;10.78;50.20
77325;BME280;66387;53.440;10.390;2023-05-02T13:12:13;101720.63;;;10.71;49.55
77325;BME280;66387;53.440;10.390;2023-05-02T13:14:38;101730.13;;;10.72;51.10
77325;BME280;66387;53.440;10.390;2023-05-02T13:17:03;101722.31;;;10.63;50.00
77325;BME280;66387;53.440;10.390;2023-05-02T13:19:29;101725.84;;;10.77;50.64
77325;BME280;66387;53.440;10.390;2023-05-02T13:21:55;101725.78;;;10.65;50.34
77325;BME280;66387;53.440;10.390;2023-05-02T13:24:20;101729.25;;;10.67;50.01
77325;BME280;66387;53.440;10.390;2023-05-02T13:26:45;101728.44;;;10.74;49.69
77325;BME280;66387;53.440;10.390;2023-05-02T13:29:11;101730.97;;;10.68;49.64
77325;BME280;66387;53.440;10.390;2023-05-02T13:31:37;101733.53;;;10.59;49.45
77325;BME280;66387;53.440;10.390;2023-05-02T13:34:03;101741.31;;;10.56;50.23
77325;BME280;66387;53.440;10.390;2023-05-02T13:36:28;101737.00;;;10.61;50.26
77325;BME280;66387;53.440;10.390;2023-05-02T13:38:53;101736.13;;;10.60;49.16
77325;BME280;66387;53.440;10.390;2023-05-02T13:41:19;101753.63;;;10.99;47.34